createdAt,value
2022-09-01T00:01:10.949Z,71.40
2022-09-01T00:04:14.072Z,72.50
2022-09-01T00:07:16.036Z,74.10
2022-09-01T00:10:18.015Z,72.40
2022-09-01T00:13:19.960Z,76.30
2022-09-01T00:16:22.180Z,80.00
2022-09-01T00:19:24.423Z,73.50
2022-09-01T00:22:26.857Z,77.90
2022-09-01T00:25:28.860Z,76.30
2022-09-01T00:28:35.080Z,76.60
2022-09-01T00:31:37.121Z,75.40
2022-09-01T00:34:39.400Z,75.60
2022-09-01T00:37:41.264Z,75.10
2022-09-01T00:40:43.453Z,85.80
2022-09-01T00:43:55.932Z,77.70
2022-09-01T00:46:58.231Z,75.80
2022-09-01T00:50:00.234Z,87.00
2022-09-01T00:53:02.197Z,76.70
2022-09-01T00:56:04.873Z,77.80
2022-09-01T00:59:07.494Z,77.20
2022-09-01T01:02:11.278Z,77.60
2022-09-01T01:05:14.200Z,77.50
2022-09-01T01:08:19.951Z,78.40
2022-09-01T01:11:21.974Z,78.40
2022-09-01T01:14:23.887Z,81.40
2022-09-01T01:17:25.968Z,81.10
2022-09-01T01:20:47.050Z,84.60
2022-09-01T01:23:54.987Z,81.00
2022-09-01T01:27:00.226Z,83.90
2022-09-01T01:30:03.188Z,82.60
2022-09-01T01:33:06.112Z,83.80
2022-09-01T01:36:21.659Z,83.60
2022-09-01T01:39:25.607Z,84.60
2022-09-01T01:42:29.049Z,84.40
2022-09-01T01:45:31.129Z,85.40
2022-09-01T01:48:34.866Z,87.10
2022-09-01T01:51:37.140Z,87.30
2022-09-01T01:54:39.128Z,86.90
2022-09-01T01:57:48.887Z,93.70
2022-09-01T02:00:52.615Z,87.80
2022-09-01T02:03:55.797Z,88.40
2022-09-01T02:06:57.896Z,90.30
2022-09-01T02:10:02.002Z,87.80
2022-09-01T02:13:05.992Z,89.20
2022-09-01T02:16:13.443Z,87.30
2022-09-01T02:19:21.090Z,85.70
2022-09-01T02:22:22.992Z,86.90
2022-09-01T02:25:27.570Z,86.40
2022-09-01T02:28:32.098Z,86.80
2022-09-01T02:31:41.918Z,86.60
2022-09-01T02:34:43.809Z,89.80
2022-09-01T02:37:49.409Z,89.10
2022-09-01T02:40:53.650Z,89.30
2022-09-01T02:43:55.575Z,89.20
2022-09-01T02:46:58.946Z,91.40
2022-09-01T02:50:01.962Z,90.00
2022-09-01T02:53:10.121Z,92.10
2022-09-01T02:56:14.647Z,91.40
2022-09-01T02:59:21.773Z,91.40
2022-09-01T03:02:26.964Z,92.50
2022-09-01T03:05:30.521Z,92.90
2022-09-01T03:08:35.628Z,93.90
2022-09-01T03:11:38.887Z,94.60
2022-09-01T03:14:40.863Z,94.40
2022-09-01T03:17:42.752Z,94.40
2022-09-01T03:20:46.496Z,94.30
2022-09-01T03:23:48.653Z,94.30
2022-09-01T03:26:50.844Z,94.90
2022-09-01T03:29:53.991Z,95.80
2022-09-01T03:32:57.110Z,96.10
2022-09-01T03:35:59.585Z,96.40
2022-09-01T03:39:01.776Z,97.10
2022-09-01T03:42:09.053Z,97.60
2022-09-01T03:45:15.931Z,98.10
2022-09-01T03:48:19.186Z,98.90
2022-09-01T03:51:23.033Z,99.70
2022-09-01T03:54:30.449Z,98.90
2022-09-01T03:57:34.052Z,99.50
2022-09-01T04:00:42.469Z,99.00
2022-09-01T04:03:52.315Z,99.90
2022-09-01T04:07:00.284Z,99.90
2022-09-01T04:10:02.658Z,99.50
2022-09-01T04:13:05.337Z,99.90
2022-09-01T04:16:31.061Z,99.90
2022-09-01T04:19:36.884Z,99.90
2022-09-01T04:22:39.199Z,99.90
2022-09-01T04:25:41.649Z,99.90
2022-09-01T04:28:48.365Z,99.90
2022-09-01T04:31:52.333Z,99.90
2022-09-01T04:34:55.546Z,99.90
2022-09-01T04:37:58.548Z,99.90
2022-09-01T04:41:04.794Z,99.90
2022-09-01T04:44:07.079Z,99.90
2022-09-01T04:47:12.285Z,99.90
2022-09-01T04:50:17.327Z,99.90
2022-09-01T04:53:40.894Z,99.90
2022-09-01T04:56:45.137Z,99.90
2022-09-01T04:59:49.754Z,99.90
2022-09-01T05:02:53.451Z,99.90
2022-09-01T05:05:56.121Z,99.90
2022-09-01T05:08:59.449Z,99.90
2022-09-01T05:12:15.859Z,99.90
2022-09-01T05:15:21.130Z,99.90
2022-09-01T05:18:24.735Z,99.90
2022-09-01T05:21:29.891Z,99.90
2022-09-01T05:24:32.739Z,99.90
2022-09-01T05:27:39.808Z,99.90
2022-09-01T05:30:41.999Z,99.90
2022-09-01T05:33:46.141Z,99.90
2022-09-01T05:36:50.586Z,99.90
2022-09-01T05:39:52.987Z,99.90
2022-09-01T05:42:56.235Z,99.90
2022-09-01T05:46:06.495Z,99.90
2022-09-01T05:49:13.738Z,99.90
2022-09-01T05:52:15.722Z,99.90
2022-09-01T05:55:17.845Z,99.90
2022-09-01T05:58:23.056Z,99.90
2022-09-01T06:01:26.570Z,99.90
2022-09-01T06:04:30.044Z,99.90
2022-09-01T06:07:39.674Z,99.90
2022-09-01T06:10:42.816Z,99.90
2022-09-01T06:13:47.215Z,99.90
2022-09-01T06:16:49.208Z,99.90
2022-09-01T06:19:52.735Z,99.90
2022-09-01T06:22:54.868Z,99.90
2022-09-01T06:25:56.884Z,99.90
2022-09-01T06:29:01.367Z,99.90
2022-09-01T06:32:04.003Z,99.90
2022-09-01T06:35:09.296Z,99.90
2022-09-01T06:38:12.667Z,99.90
2022-09-01T06:41:19.330Z,99.90
2022-09-01T06:44:23.214Z,99.90
2022-09-01T06:47:33.183Z,99.90
2022-09-01T06:53:59.346Z,99.90
2022-09-01T07:00:26.721Z,99.00
2022-09-01T07:03:28.832Z,98.30
2022-09-01T07:10:18.647Z,97.80
2022-09-01T07:13:36.275Z,96.70
2022-09-01T07:16:51.924Z,97.10
2022-09-01T07:19:56.150Z,97.40
2022-09-01T07:23:03.958Z,96.40
2022-09-01T07:26:07.724Z,95.70
2022-09-01T07:29:15.156Z,95.10
2022-09-01T07:36:25.655Z,93.30
2022-09-01T07:50:07.985Z,88.90
2022-09-01T07:52:55.430Z,87.20
2022-09-01T07:55:59.169Z,86.50
2022-09-01T07:59:02.283Z,85.50
2022-09-01T08:02:05.854Z,84.80
2022-09-01T08:05:11.643Z,87.30
2022-09-01T08:08:27.831Z,87.00
2022-09-01T08:18:16.369Z,85.70
2022-09-01T08:21:18.796Z,84.60
2022-09-01T08:24:37.376Z,85.30
2022-09-01T08:27:39.356Z,84.80
2022-09-01T08:30:51.991Z,84.20
2022-09-01T08:33:58.310Z,84.40
2022-09-01T08:37:01.346Z,83.20
2022-09-01T08:40:07.288Z,81.70
2022-09-01T08:43:18.832Z,78.30
2022-09-01T08:46:28.451Z,76.10
2022-09-01T08:49:30.859Z,68.60
2022-09-01T08:52:42.899Z,62.50
2022-09-01T08:55:45.650Z,43.70
2022-09-01T08:58:48.850Z,36.70
2022-09-01T09:02:41.137Z,42.10
2022-09-01T09:05:57.880Z,32.30
2022-09-01T09:09:09.048Z,33.20
2022-09-01T09:12:18.406Z,37.90
2022-09-01T09:16:12.834Z,39.00
2022-09-01T09:19:32.451Z,38.60
2022-09-01T09:22:34.600Z,42.10
2022-09-01T09:25:36.538Z,44.70
2022-09-01T09:28:40.208Z,46.60
2022-09-01T09:31:50.294Z,45.60
2022-09-01T09:34:52.903Z,44.10
2022-09-01T09:37:55.134Z,46.30
2022-09-01T09:41:16.981Z,46.60
2022-09-01T09:44:27.317Z,42.40
2022-09-01T09:47:43.953Z,46.30
2022-09-01T09:50:46.880Z,49.20
2022-09-01T09:53:49.014Z,50.40
2022-09-01T09:57:03.433Z,47.20
2022-09-01T10:00:29.156Z,49.00
2022-09-01T10:03:36.486Z,46.40
2022-09-01T10:06:42.368Z,44.00
2022-09-01T10:09:44.628Z,43.10
2022-09-01T10:12:46.472Z,44.00
2022-09-01T10:15:51.674Z,41.80
2022-09-01T10:18:59.989Z,41.40
2022-09-01T10:22:02.695Z,44.10
2022-09-01T10:25:05.687Z,41.80
2022-09-01T10:28:21.563Z,42.50
2022-09-01T10:31:29.428Z,42.90
2022-09-01T10:34:36.462Z,46.10
2022-09-01T10:37:39.181Z,45.90
2022-09-01T10:40:50.034Z,46.00
2022-09-01T10:43:58.892Z,48.80
2022-09-01T10:47:25.223Z,48.40
2022-09-01T10:50:35.519Z,46.10
2022-09-01T10:53:39.157Z,48.80
2022-09-01T10:56:51.285Z,46.20
2022-09-01T10:59:56.711Z,45.90
2022-09-01T11:03:32.718Z,45.70
2022-09-01T11:07:11.295Z,41.90
2022-09-01T11:10:35.655Z,39.20
2022-09-01T11:13:37.802Z,37.90
2022-09-01T11:16:47.937Z,37.40
2022-09-01T11:19:58.303Z,37.40
2022-09-01T11:23:03.509Z,35.30
2022-09-01T11:26:33.536Z,34.20
2022-09-01T11:29:55.452Z,28.70
2022-09-01T11:33:00.408Z,29.10
2022-09-01T11:36:08.146Z,27.20
2022-09-01T11:39:26.874Z,25.60
2022-09-01T11:42:29.819Z,23.30
2022-09-01T11:45:33.091Z,20.40
2022-09-01T11:48:35.014Z,19.90
2022-09-01T11:51:46.159Z,18.50
2022-09-01T11:54:48.093Z,14.50
2022-09-01T11:57:50.044Z,16.90
2022-09-01T12:00:51.945Z,17.20
2022-09-01T12:03:54.401Z,15.40
2022-09-01T12:07:27.048Z,14.90
2022-09-01T12:10:32.580Z,10.40
2022-09-01T12:13:35.005Z,12.00
2022-09-01T12:16:40.170Z,12.60
2022-09-01T12:19:42.813Z,10.80
2022-09-01T12:22:45.273Z,11.30
2022-09-01T12:25:47.219Z,12.40
2022-09-01T12:28:49.878Z,10.30
2022-09-01T12:31:52.641Z,11.20
2022-09-01T12:35:16.088Z,12.00
2022-09-01T12:38:20.923Z,5.60
2022-09-01T12:41:41.299Z,7.60
2022-09-01T12:44:46.936Z,7.00
2022-09-01T12:47:50.263Z,8.60
2022-09-01T12:50:52.580Z,11.40
2022-09-01T12:54:04.479Z,11.80
2022-09-01T12:57:06.898Z,11.20
2022-09-01T13:00:15.792Z,11.40
2022-09-01T13:03:18.195Z,13.10
2022-09-01T13:06:20.140Z,13.80
2022-09-01T13:09:22.443Z,13.00
2022-09-01T13:12:24.350Z,12.70
2022-09-01T13:15:26.340Z,12.30
2022-09-01T13:18:28.531Z,13.70
2022-09-01T13:21:31.167Z,13.30
2022-09-01T13:24:33.208Z,11.80
2022-09-01T13:27:35.164Z,13.40
2022-09-01T13:30:37.409Z,12.10
2022-09-01T13:37:01.401Z,13.20
2022-09-01T13:40:05.581Z,12.10
2022-09-01T13:43:08.669Z,11.50
2022-09-01T13:46:11.154Z,11.60
2022-09-01T13:52:35.215Z,10.90
2022-09-01T13:55:39.789Z,9.30
2022-09-01T13:58:41.749Z,10.50
2022-09-01T14:01:43.733Z,8.20
2022-09-01T14:04:45.761Z,8.30
2022-09-01T14:07:48.977Z,8.40
2022-09-01T14:10:52.102Z,8.20
2022-09-01T14:13:54.008Z,7.00
2022-09-01T14:16:55.914Z,6.60
2022-09-01T14:19:57.831Z,4.70
2022-09-01T14:22:59.747Z,7.10
2022-09-01T14:26:01.649Z,5.80
2022-09-01T14:29:03.704Z,6.90
2022-09-01T14:32:08.063Z,6.80
2022-09-01T14:35:10.144Z,7.70
2022-09-01T14:38:13.606Z,8.60
2022-09-01T14:41:16.576Z,8.30
2022-09-01T14:44:18.452Z,7.90
2022-09-01T14:47:22.014Z,6.20
2022-09-01T14:50:23.994Z,7.50
2022-09-01T14:53:26.177Z,7.40
2022-09-01T14:56:28.394Z,4.20
2022-09-01T14:59:30.396Z,6.00
2022-09-01T15:02:33.390Z,5.90
2022-09-01T15:05:40.099Z,6.60
2022-09-01T15:08:42.684Z,6.80
2022-09-01T15:11:45.628Z,7.40
2022-09-01T15:14:47.686Z,7.60
2022-09-01T15:17:49.762Z,8.50
2022-09-01T15:20:53.925Z,8.60
2022-09-01T15:23:55.888Z,9.20
2022-09-01T15:26:57.964Z,10.50
2022-09-01T15:29:59.922Z,11.50
2022-09-01T15:33:01.904Z,10.70
2022-09-01T15:36:03.956Z,10.00
2022-09-01T15:39:06.145Z,8.60
2022-09-01T15:42:08.425Z,9.90
2022-09-01T15:45:12.857Z,11.90
2022-09-01T15:48:14.985Z,11.20
2022-09-01T15:51:22.924Z,12.20
2022-09-01T15:54:30.158Z,12.70
2022-09-01T15:57:32.530Z,12.60
2022-09-01T16:00:34.667Z,13.90
2022-09-01T16:03:36.643Z,14.40
2022-09-01T16:06:38.788Z,14.40
2022-09-01T16:09:40.753Z,14.30
2022-09-01T16:12:44.054Z,14.40
2022-09-01T16:15:49.174Z,14.80
2022-09-01T16:18:51.071Z,14.10
2022-09-01T16:21:58.905Z,13.30
2022-09-01T16:25:02.401Z,13.90
2022-09-01T16:28:39.818Z,12.00
2022-09-01T16:31:42.844Z,12.90
2022-09-01T16:34:48.110Z,14.70
2022-09-01T16:38:07.353Z,14.80
2022-09-01T16:41:21.216Z,14.40
2022-09-01T16:44:49.496Z,13.80
2022-09-01T16:47:51.393Z,14.80
2022-09-01T16:50:59.504Z,14.80
2022-09-01T16:54:45.861Z,15.50
2022-09-01T16:58:21.506Z,15.10
2022-09-01T17:01:45.359Z,16.50
2022-09-01T17:04:49.204Z,17.20
2022-09-01T17:07:53.787Z,17.30
2022-09-01T17:11:34.611Z,16.00
2022-09-01T17:14:44.197Z,16.70
2022-09-01T17:18:06.093Z,18.10
2022-09-01T17:21:18.608Z,19.70
2022-09-01T17:24:28.492Z,21.60
2022-09-01T17:27:40.130Z,22.70
2022-09-01T17:31:00.706Z,23.60
2022-09-01T17:34:09.557Z,24.90
2022-09-01T17:37:40.423Z,24.90
2022-09-01T17:40:45.978Z,27.00
2022-09-01T17:44:12.755Z,26.50
2022-09-01T17:47:17.727Z,29.40
2022-09-01T17:50:43.665Z,27.80
2022-09-01T17:54:03.521Z,31.70
2022-09-01T17:57:26.527Z,35.10
2022-09-01T18:00:34.851Z,34.90
2022-09-01T18:03:45.839Z,35.60
2022-09-01T18:06:53.319Z,36.50
2022-09-01T18:09:56.274Z,34.80
2022-09-01T18:13:06.987Z,37.20
2022-09-01T18:16:21.265Z,40.90
2022-09-01T18:19:24.889Z,42.50
2022-09-01T18:22:26.828Z,38.30
2022-09-01T18:25:39.695Z,39.20
2022-09-01T18:28:42.167Z,44.70
2022-09-01T18:31:53.074Z,40.40
2022-09-01T18:35:13.679Z,39.90
2022-09-01T18:38:33.364Z,39.50
2022-09-01T18:42:03.542Z,45.70
2022-09-01T18:45:11.154Z,46.20
2022-09-01T18:48:23.083Z,44.40
2022-09-01T18:51:37.939Z,45.90
2022-09-01T18:55:08.888Z,47.70
2022-09-01T18:58:22.940Z,51.60
2022-09-01T19:01:32.285Z,52.00
2022-09-01T19:04:40.061Z,51.80
2022-09-01T19:08:06.132Z,53.30
2022-09-01T19:11:22.639Z,60.00
2022-09-01T19:14:45.769Z,57.90
2022-09-01T19:17:50.604Z,58.90
2022-09-01T19:21:04.335Z,54.90
2022-09-01T19:24:10.644Z,60.80
2022-09-01T19:27:24.343Z,59.90
2022-09-01T19:30:26.271Z,62.60
2022-09-01T19:33:34.717Z,62.10
2022-09-01T19:36:48.168Z,65.60
2022-09-01T19:39:54.212Z,63.40
2022-09-01T19:42:57.720Z,66.70
2022-09-01T19:46:18.502Z,63.60
2022-09-01T19:49:48.851Z,73.60
2022-09-01T19:53:00.711Z,78.20
2022-09-01T19:56:07.421Z,67.90
2022-09-01T19:59:50.575Z,73.90
2022-09-01T20:03:07.726Z,81.30
2022-09-01T20:06:14.322Z,81.60
2022-09-01T20:09:39.895Z,75.50
2022-09-01T20:12:57.172Z,78.80
2022-09-01T20:16:18.575Z,83.50
2022-09-01T20:19:31.411Z,80.40
2022-09-01T20:22:51.956Z,80.20
2022-09-01T20:26:04.145Z,75.30
2022-09-01T20:29:07.530Z,82.40
2022-09-01T20:32:09.507Z,88.10
2022-09-01T20:35:17.539Z,79.50
2022-09-01T20:39:16.240Z,85.00
2022-09-01T20:42:21.339Z,90.30
2022-09-01T20:45:24.644Z,89.50
2022-09-01T20:48:27.264Z,87.90
2022-09-01T20:51:39.233Z,91.50
2022-09-01T20:55:08.353Z,94.30
2022-09-01T20:58:13.089Z,97.80
2022-09-01T21:01:21.905Z,95.50
2022-09-01T21:04:32.779Z,97.70
2022-09-01T21:07:48.865Z,99.90
2022-09-01T21:11:09.362Z,99.90
2022-09-01T21:14:31.523Z,99.90
2022-09-01T21:17:43.186Z,99.90
2022-09-01T21:20:48.635Z,99.90
2022-09-01T21:23:50.536Z,99.90
2022-09-01T21:26:53.083Z,99.90
2022-09-01T21:29:58.560Z,99.90
2022-09-01T21:33:01.555Z,99.90
2022-09-01T21:36:03.676Z,99.90
2022-09-01T21:39:05.507Z,99.90
2022-09-01T21:42:08.496Z,99.90
2022-09-01T21:45:12.042Z,99.90
2022-09-01T21:48:13.945Z,99.90
2022-09-01T21:51:15.900Z,99.90
2022-09-01T21:54:18.128Z,99.90
2022-09-01T21:57:23.048Z,99.90
2022-09-01T22:00:31.685Z,99.90
2022-09-01T22:03:34.490Z,99.90
2022-09-01T22:06:38.168Z,99.90
2022-09-01T22:09:40.135Z,99.70
2022-09-01T22:12:42.939Z,99.90
2022-09-01T22:15:47.330Z,99.90
2022-09-01T22:18:49.251Z,99.30
2022-09-01T22:21:51.312Z,99.90
2022-09-01T22:24:53.264Z,99.90
2022-09-01T22:27:56.701Z,99.90
2022-09-01T22:30:58.877Z,99.90
2022-09-01T22:34:00.983Z,99.90
2022-09-01T22:37:02.903Z,99.90
2022-09-01T22:40:05.720Z,99.90
2022-09-01T22:43:07.664Z,99.90
2022-09-01T22:46:09.963Z,99.90
2022-09-01T22:49:12.273Z,99.90
2022-09-01T22:52:14.311Z,99.90
2022-09-01T22:55:16.241Z,99.90
2022-09-01T22:58:18.271Z,99.90
2022-09-01T23:01:21.697Z,99.90
2022-09-01T23:04:24.720Z,99.90
2022-09-01T23:07:26.626Z,99.90
2022-09-01T23:10:29.162Z,99.90
2022-09-01T23:13:31.114Z,99.90
2022-09-01T23:16:36.190Z,99.90
2022-09-01T23:19:38.248Z,99.90
2022-09-01T23:22:41.341Z,99.90
2022-09-01T23:25:43.917Z,99.90
2022-09-01T23:28:46.106Z,99.90
2022-09-01T23:31:47.985Z,99.90
2022-09-01T23:34:50.593Z,99.90
2022-09-01T23:37:52.531Z,99.90
2022-09-01T23:40:55.552Z,99.90
2022-09-01T23:43:58.564Z,99.90
2022-09-01T23:47:00.476Z,99.90
2022-09-01T23:50:02.919Z,99.90
2022-09-01T23:53:04.832Z,99.90
2022-09-01T23:56:11.967Z,99.90
2022-09-01T23:59:14.201Z,99.90
